This is the latest recevied weather packets stored in our database for station/object W6TKD-13. If no packets are shown the sender has not sent any weather packets the latest 10 day(s).
| Time | Temp. | Humidity | Pressure | Rain* | Wind** | Luminosity | Snow |
|---|---|---|---|---|---|---|---|
| 1777866594 | 14.44° C | 54% | 1013.3 hPa | 0 mm | - | - | - |
| 1777865928 | 14.44° C | 54% | 1013 hPa | 0 mm | - | - | - |
| 1777865259 | 14.44° C | 54% | 1013 hPa | 0 mm | - | - | - |
| 1777864592 | 15° C | 54% | 1013 hPa | 0 mm | - | - | - |
| 1777863925 | 15° C | 53% | 1012.7 hPa | 0 mm | - | - | - |
| 1777863258 | 15° C | 53% | 1012.7 hPa | 0 mm | - | - | - |
| 1777862592 | 15° C | 53% | 1012.6 hPa | 0 mm | - | - | - |
| 1777861925 | 15.56° C | 53% | 1012.5 hPa | 0 mm | - | - | - |
| 1777861257 | 15.56° C | 53% | 1012.4 hPa | 0 mm | - | - | - |
| 1777860590 | 15.56° C | 53% | 1012.3 hPa | 0 mm | - | - | - |
| 1777859923 | 15.56° C | 53% | 1012.4 hPa | 0 mm | - | - | - |
| 1777859256 | 16.11° C | 53% | 1012.2 hPa | 0 mm | - | - | - |
| 1777858590 | 16.11° C | 52% | 1012.1 hPa | 0 mm | - | - | - |
| 1777857922 | 16.67° C | 52% | 1012.2 hPa | 0 mm | - | - | - |
| 1777857255 | 17.22° C | 52% | 1012 hPa | 0 mm | - | - | - |
| 1777855922 | 17.78° C | 52% | 1012.1 hPa | 0 mm | - | - | - |
| 1777855254 | 17.78° C | 52% | 1012.1 hPa | 0 mm | - | - | - |
| 1777854587 | 17.78° C | 52% | 1011.9 hPa | 0 mm | - | - | - |
| 1777853920 | 17.78° C | 52% | 1012 hPa | 0 mm | - | - | - |
| 1777853254 | 18.33° C | 53% | 1011.9 hPa | 0 mm | - | - | - |
| 1777852589 | 17.78° C | 53% | 1012 hPa | 0 mm | - | - | - |
| 1777851919 | 17.78° C | 53% | 1011.9 hPa | 0 mm | - | - | - |
| 1777850586 | 16.67° C | 53% | 1012.4 hPa | 0 mm | - | - | - |
| 1777849919 | 16.67° C | 53% | 1012.5 hPa | 0 mm | - | - | - |
| 1777849251 | 16.67° C | 53% | 1012.6 hPa | 0 mm | - | - | - |
* Rain since midnight (hover to see other rain measurements)
** Current wind speed in m/s (hover to see current wind gust speed)